Time;durP1;ratioP1;P1;durP2;ratioP2;P2;SDS_P1;SDS_P2;PMS_P1;PMS_P2;Temp;Humidity;BMP_temperature;BMP_pressure;BME280_temperature;BME280_humidity;BME280_pressure;Samples;Min_cycle;Max_cycle;Signal;HPM_P1;HPM_P2
2023/01/04 00:00:22;;;;;;;;;;;;;;;;;;1048959;28;2221;-57
2023/01/04 00:01:14;;;;;;;;;;;;;;;;;;1043246;28;4205;-57
2023/01/04 00:01:44;;;;;;;;;;;;;;;;;;1043362;28;3877;-57
2023/01/04 00:02:14;;;;;;;;;;;;;;;;;;1045428;28;2810;-57
2023/01/04 00:02:44;;;;;;;;;;;;;;;;;;1046898;28;3824;-56
2023/01/04 00:03:15;;;;;;;;;;;;;;;;;;1048147;28;3112;-57
2023/01/04 00:03:45;;;;;;;;;;;;;;;;;;1046771;28;3939;-58
2023/01/04 00:04:15;;;;;;;;;;;;;;;;;;1048665;28;3054;-57
2023/01/04 00:04:46;;;;;;;;;;;;;;;;;;1049396;28;3759;-57
2023/01/04 00:05:16;;;;;;;;;;;;;;;;;;1048994;28;2814;-57
2023/01/04 00:05:47;;;;;;;;;;;;;;;;;;1048088;28;4210;-57
2023/01/04 00:06:17;;;;;;;;;;;;;;;;;;1043165;28;1793;-56
2023/01/04 00:06:47;;;;;;;;;;;;;;;;;;1041541;28;4528;-58
2023/01/04 00:07:25;;;;;;;;;;;;;;;;;;1045416;28;2983;-54
2023/01/04 00:07:57;;;;;;;;;;;;;;;;;;1039449;28;4084;-56
2023/01/04 00:08:27;;;;;;;;;;;;;;;;;;1042710;28;1858;-57
2023/01/04 00:08:57;;;;;;;;;;;;;;;;;;1039215;28;3882;-58
2023/01/04 00:09:28;;;;;;;;;;;;;;;;;;1040938;28;1821;-57
2023/01/04 00:09:58;;;;;;;;;;;;;;;;;;1046123;28;4049;-58
2023/01/04 00:10:28;;;;;;;;;;;;;;;;;;1046301;28;2558;-58
2023/01/04 00:10:59;;;;;;;;;;;;;;;;;;1046324;28;4142;-58
2023/01/04 00:11:29;;;;;;;;;;;;;;;;;;1048680;28;2955;-57
2023/01/04 00:12:00;;;;;;;;;;;;;;;;;;1046734;28;4137;-55
2023/01/04 00:12:30;;;;;;;;;;;;;;;;;;1048072;28;1879;-59
2023/01/04 00:13:00;;;;;;;;;;;;;;;;;;1047328;28;4026;-56
2023/01/04 00:13:31;;;;;;;;;;;;;;;;;;1047176;28;2824;-57
2023/01/04 00:14:01;;;;;;;;;;;;;;;;;;1046776;28;4021;-56
2023/01/04 00:14:31;;;;;;;;;;;;;;;;;;1047117;28;1931;-57
2023/01/04 00:15:02;;;;;;;;;;;;;;;;;;1046772;28;4213;-57
2023/01/04 00:15:32;;;;;;;;;;;;;;;;;;1048176;28;2806;-56
2023/01/04 00:16:05;;;;;;;;;;;;;;;;;;1044688;28;4231;-58
2023/01/04 00:16:35;;;;;;;;;;;;;;;;;;1042715;28;4707;-59
2023/01/04 00:17:05;;;;;;;;;;;;;;;;;;1043454;28;4768;-57
2023/01/04 00:17:36;;;;;;;;;;;;;;;;;;1045774;28;2902;-58
2023/01/04 00:18:06;;;;;;;;;;;;;;;;;;1048987;28;4015;-58
2023/01/04 00:18:36;;;;;;;;;;;;;;;;;;1049570;28;2496;-59
2023/01/04 00:19:06;;;;;;;;;;;;;;;;;;1046680;28;4365;-59
2023/01/04 00:19:37;;;;;;;;;;;;;;;;;;1049140;28;2892;-59
2023/01/04 00:20:07;;;;;;;;;;;;;;;;;;1046531;28;3735;-59
2023/01/04 00:20:38;;;;;;;;;;;;;;;;;;1050003;28;4125;-59
2023/01/04 00:21:14;;;;;;;;;;;;;;;;;;1049351;28;4052;-59
2023/01/04 00:21:44;;;;;;;;;;;;;;;;;;1050231;28;3944;-57
2023/01/04 00:22:14;;;;;;;;;;;;;;;;;;1050815;28;1761;-57
2023/01/04 00:22:45;;;;;;;;;;;;;;;;;;1050495;28;3781;-58
2023/01/04 00:23:15;;;;;;;;;;;;;;;;;;1048664;28;2717;-58
2023/01/04 00:23:46;;;;;;;;;;;;;;;;;;1044648;28;3905;-58
2023/01/04 00:24:17;;;;;;;;;;;;;;;;;;1044659;28;2896;-59
2023/01/04 00:24:53;;;;;;;;;;;;;;;;;;1045590;28;3826;-58
2023/01/04 00:25:30;;;;;;;;;;;;;;;;;;1039913;28;2834;-59
2023/01/04 00:26:10;;;;;;;;;;;;;;;;;;1041647;28;4275;-59
2023/01/04 00:26:40;;;;;;;;;;;;;;;;;;1040575;28;4479;-59
2023/01/04 00:27:11;;;;;;;;;;;;;;;;;;1040216;28;3008;-58
2023/01/04 00:27:41;;;;;;;;;;;;;;;;;;1039452;28;3798;-58
2023/01/04 00:28:11;;;;;;;;;;;;;;;;;;1038751;28;2779;-59
2023/01/04 00:28:41;;;;;;;;;;;;;;;;;;1038376;28;4414;-58
2023/01/04 00:29:12;;;;;;;;;;;;;;;;;;1038208;28;2785;-57
2023/01/04 00:29:42;;;;;;;;;;;;;;;;;;1040413;28;3870;-58
2023/01/04 00:30:13;;;;;;;;;;;;;;;;;;1040384;28;2922;-56
2023/01/04 00:30:43;;;;;;;;;;;;;;;;;;1040941;28;3774;-57
2023/01/04 00:31:14;;;;;;;;;;;;;;;;;;1039045;28;2661;-55
2023/01/04 00:31:44;;;;;;;;;;;;;;;;;;1042876;28;4242;-55
2023/01/04 00:32:14;;;;;;;;;;;;;;;;;;1039114;28;2958;-58
2023/01/04 00:32:45;;;;;;;;;;;;;;;;;;1040086;28;3923;-55
2023/01/04 00:33:15;;;;;;;;;;;;;;;;;;1041948;28;2984;-55
2023/01/04 00:33:45;;;;;;;;;;;;;;;;;;1041493;28;3981;-56
2023/01/04 00:34:16;;;;;;;;;;;;;;;;;;1039024;28;2878;-59
2023/01/04 00:34:46;;;;;;;;;;;;;;;;;;1038396;28;4192;-55
2023/01/04 00:35:16;;;;;;;;;;;;;;;;;;1040232;28;2844;-57
2023/01/04 00:35:46;;;;;;;;;;;;;;;;;;1038425;28;4028;-58
2023/01/04 00:36:17;;;;;;;;;;;;;;;;;;1039113;28;2851;-58
2023/01/04 00:36:47;;;;;;;;;;;;;;;;;;1038719;28;4018;-57
2023/01/04 00:37:17;;;;;;;;;;;;;;;;;;1041921;28;2311;-58
2023/01/04 00:37:48;;;;;;;;;;;;;;;;;;1039075;28;3936;-58
2023/01/04 00:38:18;;;;;;;;;;;;;;;;;;1039058;28;2814;-57
2023/01/04 00:39:05;;;;;;;;;;;;;;;;;;1042607;28;3791;-58
2023/01/04 00:39:36;;;;;;;;;;;;;;;;;;1040904;28;3013;-57
2023/01/04 00:40:06;;;;;;;;;;;;;;;;;;1041903;28;4048;-58
2023/01/04 00:40:36;;;;;;;;;;;;;;;;;;1042175;28;2139;-56
2023/01/04 00:41:07;;;;;;;;;;;;;;;;;;1041800;28;3770;-57
2023/01/04 00:41:39;;;;;;;;;;;;;;;;;;1039845;28;2831;-58
2023/01/04 00:42:09;;;;;;;;;;;;;;;;;;1040348;28;3918;-57
2023/01/04 00:42:40;;;;;;;;;;;;;;;;;;1039125;28;3840;-57
2023/01/04 00:43:10;;;;;;;;;;;;;;;;;;1041558;28;2978;-57
2023/01/04 00:43:40;;;;;;;;;;;;;;;;;;1043377;28;4456;-57
2023/01/04 00:44:11;;;;;;;;;;;;;;;;;;1042323;28;1792;-57
2023/01/04 00:44:41;;;;;;;;;;;;;;;;;;1041684;28;3800;-57
2023/01/04 00:45:11;;;;;;;;;;;;;;;;;;1041215;28;3035;-57
2023/01/04 00:45:42;;;;;;;;;;;;;;;;;;1038151;28;3970;-56
2023/01/04 00:46:12;;;;;;;;;;;;;;;;;;1039652;28;2748;-58
2023/01/04 00:46:43;;;;;;;;;;;;;;;;;;1039065;28;3771;-57
2023/01/04 00:47:13;;;;;;;;;;;;;;;;;;1041648;28;2795;-58
2023/01/04 00:47:43;;;;;;;;;;;;;;;;;;1039709;28;4158;-56
2023/01/04 00:48:14;;;;;;;;;;;;;;;;;;1040001;28;2764;-56
2023/01/04 00:48:44;;;;;;;;;;;;;;;;;;1038951;28;4061;-57
2023/01/04 00:49:14;;;;;;;;;;;;;;;;;;1040490;28;2827;-56
2023/01/04 00:49:44;;;;;;;;;;;;;;;;;;1039266;28;4217;-57
2023/01/04 00:50:15;;;;;;;;;;;;;;;;;;1042339;28;3037;-58
2023/01/04 00:50:45;;;;;;;;;;;;;;;;;;1042088;28;4028;-58
2023/01/04 00:51:16;;;;;;;;;;;;;;;;;;1042158;28;2469;-57
2023/01/04 00:51:46;;;;;;;;;;;;;;;;;;1039253;28;4004;-55
2023/01/04 00:52:16;;;;;;;;;;;;;;;;;;1039308;28;1662;-58
2023/01/04 00:52:48;;;;;;;;;;;;;;;;;;1038690;28;4404;-57
2023/01/04 00:53:18;;;;;;;;;;;;;;;;;;1042327;28;1988;-57
2023/01/04 00:53:49;;;;;;;;;;;;;;;;;;1041380;28;4041;-56
2023/01/04 00:54:19;;;;;;;;;;;;;;;;;;1042798;28;3117;-58
2023/01/04 00:54:49;;;;;;;;;;;;;;;;;;1042701;28;3799;-57
2023/01/04 00:55:20;;;;;;;;;;;;;;;;;;1041888;28;2806;-56
2023/01/04 00:55:50;;;;;;;;;;;;;;;;;;1042187;28;3958;-57
2023/01/04 00:56:20;;;;;;;;;;;;;;;;;;1041370;28;2827;-57
2023/01/04 00:56:51;;;;;;;;;;;;;;;;;;1038966;28;3784;-57
2023/01/04 00:57:21;;;;;;;;;;;;;;;;;;1041855;28;2800;-58
2023/01/04 00:57:51;;;;;;;;;;;;;;;;;;1037165;28;4063;-57
2023/01/04 00:58:21;;;;;;;;;;;;;;;;;;1041459;28;2802;-57
2023/01/04 00:58:58;;;;;;;;;;;;;;;;;;1040886;28;4042;-57
2023/01/04 00:59:28;;;;;;;;;;;;;;;;;;1042608;28;1611;-57
2023/01/04 00:59:59;;;;;;;;;;;;;;;;;;1038299;28;3933;-56
2023/01/04 01:00:29;;;;;;;;;;;;;;;;;;1041116;28;3214;-56
2023/01/04 01:01:03;;;;;;;;;;;;;;;;;;1040095;28;4150;-57
2023/01/04 01:01:33;;;;;;;;;;;;;;;;;;1042528;28;1803;-51
2023/01/04 01:02:04;;;;;;;;;;;;;;;;;;1040212;28;3972;-55
2023/01/04 01:02:34;;;;;;;;;;;;;;;;;;1041637;28;3179;-56
2023/01/04 01:03:05;;;;;;;;;;;;;;;;;;1040417;28;3918;-57
2023/01/04 01:03:35;;;;;;;;;;;;;;;;;;1041250;28;1742;-57
2023/01/04 01:04:05;;;;;;;;;;;;;;;;;;1038649;28;3791;-58
2023/01/04 01:04:35;;;;;;;;;;;;;;;;;;1040352;28;2129;-58
2023/01/04 01:05:06;;;;;;;;;;;;;;;;;;1038780;28;3687;-57
2023/01/04 01:05:36;;;;;;;;;;;;;;;;;;1039721;28;3252;-58
2023/01/04 01:06:07;;;;;;;;;;;;;;;;;;1039626;28;3719;-58
2023/01/04 01:06:37;;;;;;;;;;;;;;;;;;1042169;28;2045;-58
2023/01/04 01:07:07;;;;;;;;;;;;;;;;;;1038976;28;3706;-58
2023/01/04 01:07:45;;;;;;;;;;;;;;;;;;1039505;28;3991;-57
2023/01/04 01:08:24;;;;;;;;;;;;;;;;;;1038369;28;3139;-58
2023/01/04 01:08:54;;;;;;;;;;;;;;;;;;1040554;28;3927;-58
2023/01/04 01:09:25;;;;;;;;;;;;;;;;;;1039345;28;2285;-57
2023/01/04 01:09:55;;;;;;;;;;;;;;;;;;1042016;28;3893;-58
2023/01/04 01:10:25;;;;;;;;;;;;;;;;;;1040430;28;2820;-57
2023/01/04 01:11:01;;;;;;;;;;;;;;;;;;1041273;28;4066;-57
2023/01/04 01:11:31;;;;;;;;;;;;;;;;;;1038689;28;2884;-57
2023/01/04 01:12:01;;;;;;;;;;;;;;;;;;1040376;28;4035;-57
2023/01/04 01:12:32;;;;;;;;;;;;;;;;;;1039492;28;1607;-57
2023/01/04 01:13:02;;;;;;;;;;;;;;;;;;1041983;28;3774;-58
2023/01/04 01:13:32;;;;;;;;;;;;;;;;;;1040098;28;1686;-58
2023/01/04 01:14:03;;;;;;;;;;;;;;;;;;1039070;28;3929;-57
2023/01/04 01:14:33;;;;;;;;;;;;;;;;;;1043351;28;1632;-58
2023/01/04 01:15:04;;;;;;;;;;;;;;;;;;1042320;28;3738;-58
2023/01/04 01:15:34;;;;;;;;;;;;;;;;;;1040247;28;1599;-58
2023/01/04 01:16:09;;;;;;;;;;;;;;;;;;1039709;28;3974;-56
2023/01/04 01:16:39;;;;;;;;;;;;;;;;;;1042557;28;4217;-57
2023/01/04 01:17:09;;;;;;;;;;;;;;;;;;1040421;28;2879;-58
2023/01/04 01:17:39;;;;;;;;;;;;;;;;;;1041319;28;3766;-57
2023/01/04 01:18:10;;;;;;;;;;;;;;;;;;1040010;28;2652;-58
2023/01/04 01:18:41;;;;;;;;;;;;;;;;;;1042268;28;4046;-57
2023/01/04 01:19:11;;;;;;;;;;;;;;;;;;1041663;28;2755;-57
2023/01/04 01:19:42;;;;;;;;;;;;;;;;;;1042780;28;5001;-57
2023/01/04 01:20:12;;;;;;;;;;;;;;;;;;1041843;28;2306;-58
2023/01/04 01:20:43;;;;;;;;;;;;;;;;;;1040536;28;4068;-57
2023/01/04 01:21:15;;;;;;;;;;;;;;;;;;1042679;28;2899;-56
2023/01/04 01:21:46;;;;;;;;;;;;;;;;;;1040068;28;4013;-57
2023/01/04 01:22:16;;;;;;;;;;;;;;;;;;1039708;28;1758;-57
2023/01/04 01:22:46;;;;;;;;;;;;;;;;;;1039048;28;4213;-57
2023/01/04 01:23:16;;;;;;;;;;;;;;;;;;1041172;28;1610;-59
2023/01/04 01:23:47;;;;;;;;;;;;;;;;;;1040571;28;4297;-58
2023/01/04 01:24:18;;;;;;;;;;;;;;;;;;1039769;28;1813;-56
2023/01/04 01:24:48;;;;;;;;;;;;;;;;;;1039000;28;4276;-57
2023/01/04 01:25:25;;;;;;;;;;;;;;;;;;1044213;28;2914;-58
2023/01/04 01:26:03;;;;;;;;;;;;;;;;;;1046060;28;4972;-58
2023/01/04 01:26:39;;;;;;;;;;;;;;;;;;1043358;28;4058;-58
2023/01/04 01:27:10;;;;;;;;;;;;;;;;;;1047061;28;1720;-58
2023/01/04 01:27:40;;;;;;;;;;;;;;;;;;1045781;28;4462;-58
2023/01/04 01:28:10;;;;;;;;;;;;;;;;;;1044137;28;2353;-56
2023/01/04 01:28:41;;;;;;;;;;;;;;;;;;1044345;28;4132;-58
2023/01/04 01:29:11;;;;;;;;;;;;;;;;;;1044509;28;2207;-57
2023/01/04 01:29:41;;;;;;;;;;;;;;;;;;1043942;28;4076;-57
2023/01/04 01:30:11;;;;;;;;;;;;;;;;;;1044396;28;2900;-57
2023/01/04 01:30:42;;;;;;;;;;;;;;;;;;1045190;28;4038;-57
2023/01/04 01:31:13;;;;;;;;;;;;;;;;;;1048573;28;2231;-58
2023/01/04 01:31:44;;;;;;;;;;;;;;;;;;1048653;28;3860;-56
2023/01/04 01:32:14;;;;;;;;;;;;;;;;;;1044485;28;2457;-58
2023/01/04 01:32:44;;;;;;;;;;;;;;;;;;1044454;28;3822;-58
2023/01/04 01:33:14;;;;;;;;;;;;;;;;;;1044086;28;1521;-59
2023/01/04 01:33:46;;;;;;;;;;;;;;;;;;1044018;28;3912;-57
2023/01/04 01:34:16;;;;;;;;;;;;;;;;;;1046042;28;3016;-57
2023/01/04 01:34:46;;;;;;;;;;;;;;;;;;1046779;28;3824;-56
2023/01/04 01:35:17;;;;;;;;;;;;;;;;;;1047372;28;1783;-58
2023/01/04 01:35:47;;;;;;;;;;;;;;;;;;1043893;28;4442;-56
2023/01/04 01:36:18;;;;;;;;;;;;;;;;;;1043595;28;2162;-58
2023/01/04 01:36:48;;;;;;;;;;;;;;;;;;1042463;28;3996;-57
2023/01/04 01:37:18;;;;;;;;;;;;;;;;;;1044112;28;3160;-58
2023/01/04 01:37:49;;;;;;;;;;;;;;;;;;1042124;28;3789;-57
2023/01/04 01:38:19;;;;;;;;;;;;;;;;;;1044048;28;2396;-58
2023/01/04 01:38:49;;;;;;;;;;;;;;;;;;1042893;28;4179;-56
2023/01/04 01:39:19;;;;;;;;;;;;;;;;;;1045132;28;1704;-57
2023/01/04 01:39:49;;;;;;;;;;;;;;;;;;1042429;28;4452;-57
2023/01/04 01:40:20;;;;;;;;;;;;;;;;;;1044022;28;2417;-57
2023/01/04 01:40:50;;;;;;;;;;;;;;;;;;1044916;28;4032;-57
2023/01/04 01:41:22;;;;;;;;;;;;;;;;;;1046626;28;1961;-57
2023/01/04 01:41:52;;;;;;;;;;;;;;;;;;1045917;28;3869;-58
2023/01/04 01:42:22;;;;;;;;;;;;;;;;;;1047412;28;1700;-58
2023/01/04 01:42:53;;;;;;;;;;;;;;;;;;1047576;28;4300;-58
2023/01/04 01:43:43;;;;;;;;;;;;;;;;;;1045978;28;1404;-58
2023/01/04 01:44:32;;;;;;;;;;;;;;;;;;1044710;28;3871;-57
2023/01/04 01:45:09;;;;;;;;;;;;;;;;;;1046006;28;3855;-57
2023/01/04 01:45:40;;;;;;;;;;;;;;;;;;1046306;28;3866;-57
2023/01/04 01:46:10;;;;;;;;;;;;;;;;;;1047881;28;1754;-56
2023/01/04 01:46:50;;;;;;;;;;;;;;;;;;1047011;28;3816;-51
2023/01/04 01:47:22;;;;;;;;;;;;;;;;;;1046115;28;2693;-57
2023/01/04 01:47:54;;;;;;;;;;;;;;;;;;1044118;28;3908;-56
2023/01/04 01:48:27;;;;;;;;;;;;;;;;;;1045655;28;2881;-55
2023/01/04 01:49:01;;;;;;;;;;;;;;;;;;1044990;28;4075;-57
2023/01/04 01:49:33;;;;;;;;;;;;;;;;;;1046268;28;2804;-58
2023/01/04 01:50:04;;;;;;;;;;;;;;;;;;1044168;28;3826;-58
2023/01/04 01:50:36;;;;;;;;;;;;;;;;;;1045914;28;3176;-57
2023/01/04 01:51:07;;;;;;;;;;;;;;;;;;1043125;28;4303;-57
2023/01/04 01:51:37;;;;;;;;;;;;;;;;;;1047786;28;1802;-58
2023/01/04 01:52:10;;;;;;;;;;;;;;;;;;1045889;28;4148;-56
2023/01/04 01:52:41;;;;;;;;;;;;;;;;;;1044972;28;4127;-54
2023/01/04 01:53:11;;;;;;;;;;;;;;;;;;1043072;28;2884;-58
2023/01/04 01:53:43;;;;;;;;;;;;;;;;;;1045544;28;3937;-56
2023/01/04 01:54:16;;;;;;;;;;;;;;;;;;1046047;28;1853;-57
2023/01/04 01:54:51;;;;;;;;;;;;;;;;;;1047292;28;3984;-57
2023/01/04 01:55:22;;;;;;;;;;;;;;;;;;1046775;28;2005;-58
2023/01/04 01:55:53;;;;;;;;;;;;;;;;;;1046339;28;4076;-57
2023/01/04 01:56:26;;;;;;;;;;;;;;;;;;1044290;28;1699;-58
2023/01/04 01:56:58;;;;;;;;;;;;;;;;;;1043101;28;4132;-57
2023/01/04 01:57:31;;;;;;;;;;;;;;;;;;1044215;28;3017;-57
2023/01/04 01:58:02;;;;;;;;;;;;;;;;;;1042573;28;4115;-58
2023/01/04 01:58:46;;;;;;;;;;;;;;;;;;1045018;28;2876;-58
2023/01/04 01:59:17;;;;;;;;;;;;;;;;;;1046308;28;4104;-58
2023/01/04 01:59:49;;;;;;;;;;;;;;;;;;1044554;28;3796;-56
2023/01/04 02:00:19;;;;;;;;;;;;;;;;;;1045886;28;2841;-58
2023/01/04 02:00:49;;;;;;;;;;;;;;;;;;1046771;28;3980;-56
2023/01/04 02:01:20;;;;;;;;;;;;;;;;;;1043765;28;2822;-56
2023/01/04 02:01:50;;;;;;;;;;;;;;;;;;1044578;28;4054;-57
2023/01/04 02:02:20;;;;;;;;;;;;;;;;;;1045351;28;2055;-57
2023/01/04 02:02:53;;;;;;;;;;;;;;;;;;1042975;28;4622;-58
2023/01/04 02:03:31;;;;;;;;;;;;;;;;;;1047222;28;1706;-58
2023/01/04 02:04:02;;;;;;;;;;;;;;;;;;1044428;28;3756;-56
2023/01/04 02:04:34;;;;;;;;;;;;;;;;;;1047448;28;1886;-58
2023/01/04 02:05:05;;;;;;;;;;;;;;;;;;1046984;28;3749;-56
2023/01/04 02:05:35;;;;;;;;;;;;;;;;;;1046564;28;2736;-57
2023/01/04 02:06:08;;;;;;;;;;;;;;;;;;1041070;28;4220;-58
2023/01/04 02:06:42;;;;;;;;;;;;;;;;;;1042845;28;3947;-57
2023/01/04 02:07:15;;;;;;;;;;;;;;;;;;1043301;28;2835;-57
2023/01/04 02:07:52;;;;;;;;;;;;;;;;;;1043749;28;4040;-58
2023/01/04 02:08:23;;;;;;;;;;;;;;;;;;1045570;28;2409;-56
2023/01/04 02:08:54;;;;;;;;;;;;;;;;;;1043263;28;3992;-57
2023/01/04 02:09:24;;;;;;;;;;;;;;;;;;1044215;28;1870;-58
2023/01/04 02:09:55;;;;;;;;;;;;;;;;;;1044070;28;4016;-56
2023/01/04 02:10:25;;;;;;;;;;;;;;;;;;1045068;28;2187;-57
2023/01/04 02:10:56;;;;;;;;;;;;;;;;;;1044702;28;3998;-57
2023/01/04 02:11:27;;;;;;;;;;;;;;;;;;1043652;28;2812;-57
2023/01/04 02:11:57;;;;;;;;;;;;;;;;;;1044711;28;3774;-58
2023/01/04 02:12:28;;;;;;;;;;;;;;;;;;1044598;28;2733;-58
2023/01/04 02:13:01;;;;;;;;;;;;;;;;;;1044501;28;4416;-57
2023/01/04 02:14:28;;;;;;;;;;;;;;;;;;1043429;28;3759;-56
2023/01/04 02:14:59;;;;;;;;;;;;;;;;;;1043777;28;4051;-57
2023/01/04 02:15:34;;;;;;;;;;;;;;;;;;1046146;28;2889;-57
2023/01/04 02:16:17;;;;;;;;;;;;;;;;;;1043143;28;4499;-57
2023/01/04 02:16:52;;;;;;;;;;;;;;;;;;1044953;28;3839;-59
2023/01/04 02:17:22;;;;;;;;;;;;;;;;;;1044716;28;1926;-58
2023/01/04 02:18:06;;;;;;;;;;;;;;;;;;1044704;28;4250;-57
2023/01/04 02:18:42;;;;;;;;;;;;;;;;;;1045839;28;2478;-58
2023/01/04 02:19:26;;;;;;;;;;;;;;;;;;1043469;28;4451;-58
2023/01/04 02:19:59;;;;;;;;;;;;;;;;;;1044867;28;3761;-58
2023/01/04 02:20:33;;;;;;;;;;;;;;;;;;1045000;28;2458;-54
2023/01/04 02:21:26;;;;;;;;;;;;;;;;;;1043213;28;3880;-57
2023/01/04 02:21:57;;;;;;;;;;;;;;;;;;1044054;28;3884;-57
2023/01/04 02:22:46;;;;;;;;;;;;;;;;;;1043529;28;3312;-56
2023/01/04 02:23:16;;;;;;;;;;;;;;;;;;1044005;28;3942;-58
2023/01/04 02:23:59;;;;;;;;;;;;;;;;;;1043932;28;4087;-57
2023/01/04 02:24:45;;;;;;;;;;;;;;;;;;1044044;28;1673;-58
2023/01/04 02:25:40;;;;;;;;;;;;;;;;;;1046980;28;3941;-58
2023/01/04 02:26:20;;;;;;;;;;;;;;;;;;1050307;28;4120;-56
2023/01/04 02:26:56;;;;;;;;;;;;;;;;;;1046837;28;5284;-55
2023/01/04 02:27:26;;;;;;;;;;;;;;;;;;1049809;28;2791;-57
2023/01/04 02:28:16;;;;;;;;;;;;;;;;;;1050754;28;4426;-56
2023/01/04 02:29:05;;;;;;;;;;;;;;;;;;1048782;28;4032;-58
2023/01/04 02:30:05;;;;;;;;;;;;;;;;;;1051143;28;1664;-57
2023/01/04 02:30:41;;;;;;;;;;;;;;;;;;1047880;28;3908;-57
2023/01/04 02:31:27;;;;;;;;;;;;;;;;;;1048639;28;3930;-58
2023/01/04 02:32:01;;;;;;;;;;;;;;;;;;1046659;28;3820;-58
2023/01/04 02:32:38;;;;;;;;;;;;;;;;;;1051309;28;1597;-58
2023/01/04 02:33:15;;;;;;;;;;;;;;;;;;1049733;28;3992;-57
2023/01/04 02:34:00;;;;;;;;;;;;;;;;;;1050241;28;3948;-57
2023/01/04 02:34:42;;;;;;;;;;;;;;;;;;1050012;28;2770;-57
2023/01/04 02:35:24;;;;;;;;;;;;;;;;;;1047652;28;4000;-56
2023/01/04 02:36:03;;;;;;;;;;;;;;;;;;1047440;28;3755;-57
2023/01/04 02:36:41;;;;;;;;;;;;;;;;;;1050249;28;2817;-57
2023/01/04 02:37:11;;;;;;;;;;;;;;;;;;1047346;28;4133;-58
2023/01/04 02:37:53;;;;;;;;;;;;;;;;;;1047737;28;3987;-57
2023/01/04 02:38:29;;;;;;;;;;;;;;;;;;1048223;28;2062;-57
2023/01/04 02:39:04;;;;;;;;;;;;;;;;;;1049401;28;3821;-58
2023/01/04 02:39:41;;;;;;;;;;;;;;;;;;1048084;28;3189;-57
2023/01/04 02:40:30;;;;;;;;;;;;;;;;;;1046832;28;3925;-58
2023/01/04 02:41:04;;;;;;;;;;;;;;;;;;1049836;28;4467;-57
2023/01/04 02:41:42;;;;;;;;;;;;;;;;;;1048891;28;2784;-57
2023/01/04 02:42:19;;;;;;;;;;;;;;;;;;1046967;28;3925;-57
2023/01/04 02:44:51;;;;;;;;;;;;;;;;;;1050580;28;4184;-57
2023/01/04 02:45:25;;;;;;;;;;;;;;;;;;1049949;28;2733;-56
2023/01/04 02:46:02;;;;;;;;;;;;;;;;;;1047603;28;3865;-58
2023/01/04 02:46:34;;;;;;;;;;;;;;;;;;1048174;28;2803;-58
2023/01/04 02:47:07;;;;;;;;;;;;;;;;;;1047688;28;4149;-56
2023/01/04 02:50:51;;;;;;;;;;;;;;;;;;1032552;28;4240;-57
2023/01/04 02:51:32;;;;;;;;;;;;;;;;;;1032767;28;3731;-57
2023/01/04 02:52:02;;;;;;;;;;;;;;;;;;1033828;28;3827;-57
2023/01/04 02:52:33;;;;;;;;;;;;;;;;;;1034282;28;1892;-58
2023/01/04 02:53:06;;;;;;;;;;;;;;;;;;1031441;28;3855;-57
2023/01/04 02:53:38;;;;;;;;;;;;;;;;;;1033773;28;2690;-57
2023/01/04 02:54:13;;;;;;;;;;;;;;;;;;1026723;28;4375;-56
2023/01/04 02:54:44;;;;;;;;;;;;;;;;;;1027902;28;3918;-58
2023/01/04 02:55:14;;;;;;;;;;;;;;;;;;1029584;28;2960;-57
2023/01/04 02:56:04;;;;;;;;;;;;;;;;;;1030298;28;4581;-55
2023/01/04 02:56:53;;;;;;;;;;;;;;;;;;1046118;28;2420;-57
2023/01/04 02:57:24;;;;;;;;;;;;;;;;;;1050532;28;3971;-57
2023/01/04 02:58:00;;;;;;;;;;;;;;;;;;1049254;28;3893;-56
2023/01/04 02:58:30;;;;;;;;;;;;;;;;;;1048966;28;2919;-57
2023/01/04 02:59:06;;;;;;;;;;;;;;;;;;1043382;28;4484;-57
2023/01/04 02:59:44;;;;;;;;;;;;;;;;;;1042477;28;1825;-57
2023/01/04 03:00:20;;;;;;;;;;;;;;;;;;1038066;28;3932;-57
2023/01/04 03:06:39;;;;;;;;;;;;;;;;;;1047087;28;4012;-57
2023/01/04 03:07:28;;;;;;;;;;;;;;;;;;1047375;28;3952;-56
2023/01/04 03:08:11;;;;;;;;;;;;;;;;;;1046803;28;3916;-58
2023/01/04 03:08:52;;;;;;;;;;;;;;;;;;1048144;28;3988;-57
2023/01/04 03:09:25;;;;;;;;;;;;;;;;;;1048825;28;2973;-56
2023/01/04 03:10:13;;;;;;;;;;;;;;;;;;1050312;28;3873;-58
2023/01/04 03:11:04;;;;;;;;;;;;;;;;;;1050317;28;3839;-57
2023/01/04 03:12:51;;;;;;;;;;;;;;;;;;1044896;28;4275;-57
2023/01/04 03:13:24;;;;;;;;;;;;;;;;;;1048260;28;1690;-56
2023/01/04 03:13:57;;;;;;;;;;;;;;;;;;1043023;28;4381;-57
2023/01/04 03:14:30;;;;;;;;;;;;;;;;;;1044735;28;2249;-58
2023/01/04 03:15:04;;;;;;;;;;;;;;;;;;1045011;28;3939;-57
2023/01/04 03:15:36;;;;;;;;;;;;;;;;;;1044133;28;3090;-57
2023/01/04 03:16:10;;;;;;;;;;;;;;;;;;1044756;28;4338;-57
2023/01/04 03:16:41;;;;;;;;;;;;;;;;;;1045281;28;3973;-51
2023/01/04 03:17:13;;;;;;;;;;;;;;;;;;1045253;28;2161;-54
2023/01/04 03:17:46;;;;;;;;;;;;;;;;;;1043370;28;4065;-57
2023/01/04 03:18:25;;;;;;;;;;;;;;;;;;1048756;28;1840;-56
2023/01/04 03:18:57;;;;;;;;;;;;;;;;;;1045202;28;4188;-56
2023/01/04 03:20:18;;;;;;;;;;;;;;;;;;1046476;28;3813;-57
2023/01/04 03:20:49;;;;;;;;;;;;;;;;;;1048390;28;3943;-57
2023/01/04 03:21:21;;;;;;;;;;;;;;;;;;1050464;28;2932;-58
2023/01/04 03:21:52;;;;;;;;;;;;;;;;;;1048431;28;3902;-57
2023/01/04 03:35:21;;;;;;;;;;;;;;;;;;1048458;28;3795;-58
2023/01/04 03:35:22;;;;;;;;;;;;;;;;;;1049662;28;3873;-55
2023/01/04 03:36:00;;;;;;;;;;;;;;;;;;1050050;28;3943;-56
2023/01/04 03:36:40;;;;;;;;;;;;;;;;;;1049786;28;2655;-57
2023/01/04 03:37:16;;;;;;;;;;;;;;;;;;1048975;28;3828;-57
2023/01/04 03:37:49;;;;;;;;;;;;;;;;;;1048620;28;3778;-58
2023/01/04 03:48:33;;;;;;;;;;;;;;;;;;1047153;28;3970;-56
2023/01/04 03:49:13;;;;;;;;;;;;;;;;;;1048127;28;4102;-55
2023/01/04 03:49:49;;;;;;;;;;;;;;;;;;1050484;28;3963;-57
2023/01/04 03:50:24;;;;;;;;;;;;;;;;;;1046605;28;2600;-57
2023/01/04 03:51:01;;;;;;;;;;;;;;;;;;1043470;28;4045;-57
2023/01/04 03:51:34;;;;;;;;;;;;;;;;;;1043998;28;2847;-58
2023/01/04 03:52:06;;;;;;;;;;;;;;;;;;1046396;28;4944;-57
2023/01/04 03:52:38;;;;;;;;;;;;;;;;;;1048279;28;1764;-58
2023/01/04 03:53:10;;;;;;;;;;;;;;;;;;1049240;28;3929;-55
2023/01/04 03:53:49;;;;;;;;;;;;;;;;;;1047153;28;3922;-57
2023/01/04 03:54:22;;;;;;;;;;;;;;;;;;1050519;28;1780;-57
2023/01/04 03:54:53;;;;;;;;;;;;;;;;;;1047129;28;3869;-58
2023/01/04 03:55:25;;;;;;;;;;;;;;;;;;1051638;28;1620;-56
2023/01/04 03:55:57;;;;;;;;;;;;;;;;;;1050525;28;4077;-57
2023/01/04 03:56:28;;;;;;;;;;;;;;;;;;1050848;28;2523;-58
2023/01/04 03:56:58;;;;;;;;;;;;;;;;;;1046519;28;4303;-57
2023/01/04 03:57:30;;;;;;;;;;;;;;;;;;1047079;28;1636;-58
2023/01/04 03:58:00;;;;;;;;;;;;;;;;;;1042322;28;3889;-57
2023/01/04 03:58:30;;;;;;;;;;;;;;;;;;1043689;28;2929;-58
2023/01/04 03:59:01;;;;;;;;;;;;;;;;;;1039552;28;4068;-58
2023/01/04 03:59:33;;;;;;;;;;;;;;;;;;1039229;28;1701;-58
2023/01/04 04:00:08;;;;;;;;;;;;;;;;;;1044285;28;4386;-58
2023/01/04 04:00:38;;;;;;;;;;;;;;;;;;1047340;28;2667;-57
2023/01/04 04:01:09;;;;;;;;;;;;;;;;;;1049302;28;3911;-57
2023/01/04 04:01:41;;;;;;;;;;;;;;;;;;1049407;28;3946;-54
2023/01/04 04:02:13;;;;;;;;;;;;;;;;;;1047704;28;1789;-58
2023/01/04 04:02:46;;;;;;;;;;;;;;;;;;1046023;28;4366;-58
2023/01/04 04:03:17;;;;;;;;;;;;;;;;;;1048247;28;3016;-58
2023/01/04 04:08:41;;;;;;;;;;;;;;;;;;1050149;28;3964;-57
2023/01/04 04:09:11;;;;;;;;;;;;;;;;;;1050087;28;2748;-56
2023/01/04 04:09:48;;;;;;;;;;;;;;;;;;1046665;28;4021;-58
2023/01/04 04:10:18;;;;;;;;;;;;;;;;;;1049678;28;2051;-58
2023/01/04 04:10:48;;;;;;;;;;;;;;;;;;1043410;28;3797;-58
2023/01/04 04:11:31;;;;;;;;;;;;;;;;;;1039331;28;3007;-58
2023/01/04 04:12:01;;;;;;;;;;;;;;;;;;1041988;28;4076;-58
2023/01/04 04:12:31;;;;;;;;;;;;;;;;;;1043910;28;1852;-58
2023/01/04 04:13:02;;;;;;;;;;;;;;;;;;1047299;28;3881;-58
2023/01/04 04:13:32;;;;;;;;;;;;;;;;;;1049243;28;1843;-58
2023/01/04 04:14:02;;;;;;;;;;;;;;;;;;1046110;28;4378;-58
2023/01/04 04:14:32;;;;;;;;;;;;;;;;;;1045853;28;1971;-58
2023/01/04 04:15:03;;;;;;;;;;;;;;;;;;1045502;28;3946;-58
2023/01/04 04:15:35;;;;;;;;;;;;;;;;;;1043993;28;2864;-57
2023/01/04 04:16:05;;;;;;;;;;;;;;;;;;1049880;28;4367;-58
2023/01/04 04:16:36;;;;;;;;;;;;;;;;;;1051835;28;2086;-58
2023/01/04 04:17:06;;;;;;;;;;;;;;;;;;1049738;28;4377;-56
2023/01/04 04:17:36;;;;;;;;;;;;;;;;;;1048636;28;2928;-57
2023/01/04 04:18:06;;;;;;;;;;;;;;;;;;1051044;28;3735;-56
2023/01/04 04:18:37;;;;;;;;;;;;;;;;;;1048261;28;2785;-56
2023/01/04 04:19:07;;;;;;;;;;;;;;;;;;1050307;28;3985;-57
2023/01/04 04:19:37;;;;;;;;;;;;;;;;;;1050450;28;2844;-58
2023/01/04 04:20:08;;;;;;;;;;;;;;;;;;1047526;28;4199;-58
2023/01/04 04:20:38;;;;;;;;;;;;;;;;;;1050155;28;2688;-58
2023/01/04 04:21:08;;;;;;;;;;;;;;;;;;1048390;28;4339;-58
2023/01/04 04:21:39;;;;;;;;;;;;;;;;;;1049229;28;4150;-56
2023/01/04 04:22:09;;;;;;;;;;;;;;;;;;1051648;28;3855;-58
2023/01/04 04:22:39;;;;;;;;;;;;;;;;;;1049558;28;3797;-57
2023/01/04 04:23:10;;;;;;;;;;;;;;;;;;1048887;28;2751;-57
2023/01/04 04:23:40;;;;;;;;;;;;;;;;;;1048057;28;4024;-58
2023/01/04 04:24:15;;;;;;;;;;;;;;;;;;1048985;28;1951;-58
2023/01/04 04:24:45;;;;;;;;;;;;;;;;;;1047969;28;4018;-59
2023/01/04 04:25:30;;;;;;;;;;;;;;;;;;1046942;28;2877;-58
2023/01/04 04:26:07;;;;;;;;;;;;;;;;;;1046744;28;3848;-57
2023/01/04 04:26:37;;;;;;;;;;;;;;;;;;1044147;28;1779;-57
2023/01/04 04:27:07;;;;;;;;;;;;;;;;;;1043352;28;3977;-57
2023/01/04 04:27:37;;;;;;;;;;;;;;;;;;1045178;28;2705;-57
2023/01/04 04:28:08;;;;;;;;;;;;;;;;;;1049752;28;3692;-57
2023/01/04 04:28:38;;;;;;;;;;;;;;;;;;1048570;28;2732;-57
2023/01/04 04:29:08;;;;;;;;;;;;;;;;;;1048745;28;3795;-58
2023/01/04 04:29:38;;;;;;;;;;;;;;;;;;1048578;28;2942;-58